Bayesian — 2ICB8 — position and weather

sailwx.info

Track history (hours):
 
Tides and Currents Weather Stations Pressure Air Temp Water Temp Dewpoint Dewpoint Depression Visibility Wind Speed Wind Dir Waves Ship Positions

Bayesian

Last reported at 2018-Feb-23 05:58 UTC. Time now 2018-Feb-23 06:05 UTC.
Position N 17°00' W 061°46'.

Length 56 m; draft 4 m.

Type: Pleasure craft. MMSI: 235108471.

Date/timePositionNaut miles runAvg speedWind from/ knotsBaromVisibWave heightAir tempDewpointWater temp
2018-Feb-23 05:58N 17°00' W 061°46'0 0.0
2018-Feb-23 05:28N 17°00' W 061°46'0 0.0
2018-Feb-23 05:01N 17°00' W 061°46'0 0.0
2018-Feb-23 04:28N 17°00' W 061°46'0 0.0
2018-Feb-23 04:01N 17°00' W 061°46'0 0.0
2018-Feb-23 03:28N 17°00' W 061°46'0 0.0
2018-Feb-23 03:01N 17°00' W 061°46'0 0.0
2018-Feb-23 02:31N 17°00' W 061°46'0 0.0
2018-Feb-23 02:01N 17°00' W 061°46'0 0.0
2018-Feb-23 01:31N 17°00' W 061°46'0 0.0
2018-Feb-23 01:01N 17°00' W 061°46'0 0.0
2018-Feb-23 00:31N 17°00' W 061°46'0 0.0
2018-Feb-23 00:01N 17°00' W 061°46'0 0.0
2018-Feb-22 23:31N 17°00' W 061°46'0 0.0
2018-Feb-22 23:01N 17°00' W 061°46'0 0.0
2018-Feb-22 22:31N 17°00' W 061°46'0 0.0
2018-Feb-22 22:01N 17°00' W 061°46'0 0.0
2018-Feb-22 21:31N 17°00' W 061°46'0 0.0
2018-Feb-22 21:01N 17°00' W 061°46'0 0.0
2018-Feb-22 20:31N 17°00' W 061°46'0 0.0
2018-Feb-22 20:01N 17°00' W 061°46'0 0.0
2018-Feb-22 19:30N 17°00' W 061°46'0 0.0
2018-Feb-22 19:00N 17°00' W 061°46'0 0.0
2018-Feb-22 18:30N 17°00' W 061°46'0 0.0
2018-Feb-22 18:00N 17°00' W 061°46'0 0.2
2018-Feb-22 17:30N 17°00' W 061°46'2 4.3
2018-Feb-22 17:00N 17°00' W 061°48'4 7.9
2018-Feb-22 16:30N 16°60' W 061°52'4 7.6
2018-Feb-22 15:59N 16°59' W 061°56'4 7.5
2018-Feb-22 15:30N 16°59' W 061°60'13 5.7
2018-Feb-22 13:18N 16°55' W 062°13'3 6.7
2018-Feb-22 12:49N 16°52' W 062°13'2 6.9
2018-Feb-22 12:30N 16°50' W 062°13'  
2018-Feb-20 02:17N 17°38' W 063°04'3 9.0
2018-Feb-20 01:58N 17°41' W 063°04'6 8.7
2018-Feb-20 01:19N 17°46' W 063°05'3 8.6
2018-Feb-20 01:00N 17°49' W 063°06'4 8.8
2018-Feb-20 00:30N 17°54' W 063°06'4 9.0
2018-Feb-20 00:00N 17°58' W 063°06'4 6.9
2018-Feb-19 23:27N 18°02' W 063°06'0 0.1
2018-Feb-19 22:56N 18°02' W 063°06'0 0.0
2018-Feb-19 22:26N 18°02' W 063°06'0 0.0
2018-Feb-19 21:56N 18°02' W 063°06'0 0.0
2018-Feb-19 21:23N 18°02' W 063°06'0 0.0
2018-Feb-19 20:56N 18°02' W 063°06'0 0.0
2018-Feb-19 20:29N 18°02' W 063°06'0 0.0
2018-Feb-19 19:59N 18°02' W 063°06'0 0.0
2018-Feb-19 19:29N 18°02' W 063°06'0 0.0
2018-Feb-19 18:59N 18°02' W 063°06'0 0.0
2018-Feb-19 18:29N 18°02' W 063°06'0 0.0
2018-Feb-19 17:59N 18°02' W 063°06'0 0.0
2018-Feb-19 17:29N 18°02' W 063°06'0 0.0
2018-Feb-19 16:59N 18°02' W 063°06'0 0.0
2018-Feb-19 16:29N 18°02' W 063°06'0 0.0
2018-Feb-19 15:59N 18°02' W 063°06'0 0.0
2018-Feb-19 15:29N 18°02' W 063°06'0 0.0
2018-Feb-19 14:59N 18°02' W 063°06'0 0.0
2018-Feb-19 14:17N 18°02' W 063°06'0 0.1
2018-Feb-19 13:50N 18°02' W 063°06'0 0.0
2018-Feb-19 13:17N 18°02' W 063°06'0 0.0
2018-Feb-19 12:50N 18°02' W 063°06'0 0.0
2018-Feb-19 12:23N 18°02' W 063°06'0 0.0
2018-Feb-19 11:53N 18°02' W 063°06'0 0.0
2018-Feb-19 11:23N 18°02' W 063°06'0 0.0
2018-Feb-19 10:53N 18°02' W 063°06'0 0.0
2018-Feb-19 10:23N 18°02' W 063°06'0 0.0
2018-Feb-19 09:50N 18°02' W 063°06'0 0.0
2018-Feb-19 09:26N 18°02' W 063°06'0 0.0
2018-Feb-19 08:56N 18°02' W 063°06'0 0.0
2018-Feb-19 08:23N 18°02' W 063°06'0 0.0
2018-Feb-19 07:56N 18°02' W 063°06'0 0.0
2018-Feb-19 07:26N 18°02' W 063°06'0 0.0
2018-Feb-19 06:59N 18°02' W 063°06'0 0.0
2018-Feb-19 06:29N 18°02' W 063°06'0 0.0
2018-Feb-19 05:59N 18°02' W 063°06'0 0.0
2018-Feb-19 05:29N 18°02' W 063°06'0 0.0
2018-Feb-19 04:59N 18°02' W 063°06'0 0.0
2018-Feb-19 04:29N 18°02' W 063°06'0 0.0
2018-Feb-19 03:59N 18°02' W 063°06'0 0.0
2018-Feb-19 03:29N 18°02' W 063°06'0 0.0
2018-Feb-19 02:59N 18°02' W 063°06'0 0.0
2018-Feb-19 02:29N 18°02' W 063°06'0 0.0
2018-Feb-19 01:59N 18°02' W 063°06'0 0.0
2018-Feb-19 01:29N 18°02' W 063°06'0 0.0
2018-Feb-19 00:59N 18°02' W 063°06'0 0.0
2018-Feb-19 00:29N 18°02' W 063°06'0 0.0
2018-Feb-18 23:59N 18°02' W 063°06'0 0.0
2018-Feb-18 23:17N 18°02' W 063°06'0 0.0
2018-Feb-18 22:50N 18°02' W 063°06'0 0.0
2018-Feb-18 22:23N 18°02' W 063°06'0 0.0
2018-Feb-18 21:53N 18°02' W 063°06'0 0.0
2018-Feb-18 21:23N 18°02' W 063°06'0 0.0
2018-Feb-18 20:53N 18°02' W 063°06'0 0.0
2018-Feb-18 20:23N 18°02' W 063°06'0 0.0
2018-Feb-18 19:53N 18°02' W 063°06'0 0.0
2018-Feb-18 19:23N 18°02' W 063°06'0 0.0
2018-Feb-18 18:56N 18°02' W 063°06'0 0.0
2018-Feb-18 18:27N 18°02' W 063°06'0 0.5
2018-Feb-18 17:47N 18°02' W 063°06'3 8.9
2018-Feb-18 17:31N 17°59' W 063°05'  
Track history (hours):
 
Tides and Currents Weather Stations Pressure Air Temp Water Temp Dewpoint Dewpoint Depression Visibility Wind Speed Wind Dir Waves Ship Positions

Bayesian

Last reported at 2018-Feb-23 05:58 UTC. Time now 2018-Feb-23 06:05 UTC.
Position N 17°00' W 061°46'.

Length 56 m; draft 4 m.

Type: Pleasure craft. MMSI: 235108471.

Date/timePositionNaut miles runAvg speedWind from/ knotsBaromVisibWave heightAir tempDewpointWater temp
2018-Feb-23 05:58N 17°00' W 061°46'0 0.0
2018-Feb-23 05:28N 17°00' W 061°46'0 0.0
2018-Feb-23 05:01N 17°00' W 061°46'0 0.0
2018-Feb-23 04:28N 17°00' W 061°46'0 0.0
2018-Feb-23 04:01N 17°00' W 061°46'0 0.0
2018-Feb-23 03:28N 17°00' W 061°46'0 0.0
2018-Feb-23 03:01N 17°00' W 061°46'0 0.0
2018-Feb-23 02:31N 17°00' W 061°46'0 0.0
2018-Feb-23 02:01N 17°00' W 061°46'0 0.0
2018-Feb-23 01:31N 17°00' W 061°46'0 0.0
2018-Feb-23 01:01N 17°00' W 061°46'0 0.0
2018-Feb-23 00:31N 17°00' W 061°46'0 0.0
2018-Feb-23 00:01N 17°00' W 061°46'0 0.0
2018-Feb-22 23:31N 17°00' W 061°46'0 0.0
2018-Feb-22 23:01N 17°00' W 061°46'0 0.0
2018-Feb-22 22:31N 17°00' W 061°46'0 0.0
2018-Feb-22 22:01N 17°00' W 061°46'0 0.0
2018-Feb-22 21:31N 17°00' W 061°46'0 0.0
2018-Feb-22 21:01N 17°00' W 061°46'0 0.0
2018-Feb-22 20:31N 17°00' W 061°46'0 0.0
2018-Feb-22 20:01N 17°00' W 061°46'0 0.0
2018-Feb-22 19:30N 17°00' W 061°46'0 0.0
2018-Feb-22 19:00N 17°00' W 061°46'0 0.0
2018-Feb-22 18:30N 17°00' W 061°46'0 0.0
2018-Feb-22 18:00N 17°00' W 061°46'0 0.2
2018-Feb-22 17:30N 17°00' W 061°46'2 4.3
2018-Feb-22 17:00N 17°00' W 061°48'4 7.9
2018-Feb-22 16:30N 16°60' W 061°52'4 7.6
2018-Feb-22 15:59N 16°59' W 061°56'4 7.5
2018-Feb-22 15:30N 16°59' W 061°60'13 5.7
2018-Feb-22 13:18N 16°55' W 062°13'3 6.7
2018-Feb-22 12:49N 16°52' W 062°13'2 6.9
2018-Feb-22 12:30N 16°50' W 062°13'  
2018-Feb-20 02:17N 17°38' W 063°04'3 9.0
2018-Feb-20 01:58N 17°41' W 063°04'6 8.7
2018-Feb-20 01:19N 17°46' W 063°05'3 8.6
2018-Feb-20 01:00N 17°49' W 063°06'4 8.8
2018-Feb-20 00:30N 17°54' W 063°06'4 9.0
2018-Feb-20 00:00N 17°58' W 063°06'4 6.9
2018-Feb-19 23:27N 18°02' W 063°06'0 0.1
2018-Feb-19 22:56N 18°02' W 063°06'0 0.0
2018-Feb-19 22:26N 18°02' W 063°06'0 0.0
2018-Feb-19 21:56N 18°02' W 063°06'0 0.0
2018-Feb-19 21:23N 18°02' W 063°06'0 0.0
2018-Feb-19 20:56N 18°02' W 063°06'0 0.0
2018-Feb-19 20:29N 18°02' W 063°06'0 0.0
2018-Feb-19 19:59N 18°02' W 063°06'0 0.0
2018-Feb-19 19:29N 18°02' W 063°06'0 0.0
2018-Feb-19 18:59N 18°02' W 063°06'0 0.0
2018-Feb-19 18:29N 18°02' W 063°06'0 0.0
2018-Feb-19 17:59N 18°02' W 063°06'0 0.0
2018-Feb-19 17:29N 18°02' W 063°06'0 0.0
2018-Feb-19 16:59N 18°02' W 063°06'0 0.0
2018-Feb-19 16:29N 18°02' W 063°06'0 0.0
2018-Feb-19 15:59N 18°02' W 063°06'0 0.0
2018-Feb-19 15:29N 18°02' W 063°06'0 0.0
2018-Feb-19 14:59N 18°02' W 063°06'0 0.0
2018-Feb-19 14:17N 18°02' W 063°06'0 0.1
2018-Feb-19 13:50N 18°02' W 063°06'0 0.0
2018-Feb-19 13:17N 18°02' W 063°06'0 0.0
2018-Feb-19 12:50N 18°02' W 063°06'0 0.0
2018-Feb-19 12:23N 18°02' W 063°06'0 0.0
2018-Feb-19 11:53N 18°02' W 063°06'0 0.0
2018-Feb-19 11:23N 18°02' W 063°06'0 0.0
2018-Feb-19 10:53N 18°02' W 063°06'0 0.0
2018-Feb-19 10:23N 18°02' W 063°06'0 0.0
2018-Feb-19 09:50N 18°02' W 063°06'0 0.0
2018-Feb-19 09:26N 18°02' W 063°06'0 0.0
2018-Feb-19 08:56N 18°02' W 063°06'0 0.0
2018-Feb-19 08:23N 18°02' W 063°06'0 0.0
2018-Feb-19 07:56N 18°02' W 063°06'0 0.0
2018-Feb-19 07:26N 18°02' W 063°06'0 0.0
2018-Feb-19 06:59N 18°02' W 063°06'0 0.0
2018-Feb-19 06:29N 18°02' W 063°06'0 0.0
2018-Feb-19 05:59N 18°02' W 063°06'0 0.0
2018-Feb-19 05:29N 18°02' W 063°06'0 0.0
2018-Feb-19 04:59N 18°02' W 063°06'0 0.0
2018-Feb-19 04:29N 18°02' W 063°06'0 0.0
2018-Feb-19 03:59N 18°02' W 063°06'0 0.0
2018-Feb-19 03:29N 18°02' W 063°06'0 0.0
2018-Feb-19 02:59N 18°02' W 063°06'0 0.0
2018-Feb-19 02:29N 18°02' W 063°06'0 0.0
2018-Feb-19 01:59N 18°02' W 063°06'0 0.0
2018-Feb-19 01:29N 18°02' W 063°06'0 0.0
2018-Feb-19 00:59N 18°02' W 063°06'0 0.0
2018-Feb-19 00:29N 18°02' W 063°06'0 0.0
2018-Feb-18 23:59N 18°02' W 063°06'0 0.0
2018-Feb-18 23:17N 18°02' W 063°06'0 0.0
2018-Feb-18 22:50N 18°02' W 063°06'0 0.0
2018-Feb-18 22:23N 18°02' W 063°06'0 0.0
2018-Feb-18 21:53N 18°02' W 063°06'0 0.0
2018-Feb-18 21:23N 18°02' W 063°06'0 0.0
2018-Feb-18 20:53N 18°02' W 063°06'0 0.0
2018-Feb-18 20:23N 18°02' W 063°06'0 0.0
2018-Feb-18 19:53N 18°02' W 063°06'0 0.0
2018-Feb-18 19:23N 18°02' W 063°06'0 0.0
2018-Feb-18 18:56N 18°02' W 063°06'0 0.0
2018-Feb-18 18:27N 18°02' W 063°06'0 0.5
2018-Feb-18 17:47N 18°02' W 063°06'3 8.9
2018-Feb-18 17:31N 17°59' W 063°05'  

Dump ship's entire track history